createdAt,value
2022-11-14T00:00:51.838Z,3.70
2022-11-14T00:03:38.158Z,3.70
2022-11-14T00:06:24.302Z,3.97
2022-11-14T00:09:10.782Z,3.83
2022-11-14T00:11:57.545Z,3.45
2022-11-14T00:14:43.820Z,4.05
2022-11-14T00:17:31.385Z,3.97
2022-11-14T00:20:17.723Z,4.10
2022-11-14T00:23:04.092Z,4.18
2022-11-14T00:25:50.498Z,4.40
2022-11-14T00:28:36.822Z,3.83
2022-11-14T00:31:22.954Z,4.10
2022-11-14T00:34:10.905Z,3.80
2022-11-14T00:36:57.171Z,4.00
2022-11-14T00:39:43.320Z,4.13
2022-11-14T00:42:29.863Z,4.40
2022-11-14T00:45:16.516Z,4.07
2022-11-14T00:48:02.736Z,3.88
2022-11-14T00:50:50.545Z,3.80
2022-11-14T00:53:37.331Z,4.15
2022-11-14T00:56:23.553Z,4.28
2022-11-14T00:59:09.850Z,4.45
2022-11-14T01:01:57.988Z,4.50
2022-11-14T01:04:44.605Z,4.40
2022-11-14T01:07:32.216Z,4.68
2022-11-14T01:10:19.458Z,4.80
2022-11-14T01:13:06.075Z,5.00
2022-11-14T01:15:54.002Z,4.85
2022-11-14T01:18:41.437Z,4.97
2022-11-14T01:21:27.854Z,4.45
2022-11-14T01:24:15.602Z,4.50
2022-11-14T01:27:05.260Z,4.85
2022-11-14T01:29:51.550Z,4.80
2022-11-14T01:32:37.873Z,4.82
2022-11-14T01:35:24.115Z,4.30
2022-11-14T01:38:14.651Z,4.53
2022-11-14T01:41:02.995Z,4.60
2022-11-14T01:43:49.714Z,4.10
2022-11-14T01:46:38.335Z,4.72
2022-11-14T01:49:27.862Z,4.83
2022-11-14T01:52:18.830Z,4.80
2022-11-14T01:55:08.646Z,4.10
2022-11-14T01:57:58.062Z,5.43
2022-11-14T02:00:45.411Z,3.97
2022-11-14T02:03:32.483Z,4.05
2022-11-14T02:06:22.002Z,4.05
2022-11-14T02:11:58.697Z,4.20
2022-11-14T02:14:48.250Z,4.18
2022-11-14T02:17:34.423Z,4.03
2022-11-14T02:20:23.837Z,3.63
2022-11-14T02:23:12.324Z,3.45
2022-11-14T02:25:59.117Z,3.58
2022-11-14T02:28:45.624Z,3.05
2022-11-14T02:31:31.862Z,2.83
2022-11-14T02:34:20.172Z,3.80
2022-11-14T02:37:08.822Z,3.75
2022-11-14T02:39:55.310Z,3.50
2022-11-14T02:42:41.887Z,3.72
2022-11-14T02:45:28.455Z,3.50
2022-11-14T02:48:15.087Z,3.10
2022-11-14T02:51:01.653Z,3.25
2022-11-14T02:53:49.066Z,3.35
2022-11-14T02:56:35.484Z,3.38
2022-11-14T02:59:22.080Z,3.55
2022-11-14T03:02:08.348Z,4.05
2022-11-14T03:04:55.236Z,3.55
2022-11-14T03:07:41.509Z,3.30
2022-11-14T03:10:29.225Z,3.65
2022-11-14T03:13:15.409Z,3.35
2022-11-14T03:16:06.671Z,3.90
2022-11-14T03:18:53.499Z,3.80
2022-11-14T03:21:39.682Z,2.95
2022-11-14T03:24:25.901Z,3.45
2022-11-14T03:27:13.637Z,3.67
2022-11-14T03:30:00.523Z,3.08
2022-11-14T03:32:46.824Z,3.72
2022-11-14T03:35:33.001Z,3.40
2022-11-14T03:38:22.960Z,3.33
2022-11-14T03:41:09.512Z,3.30
2022-11-14T03:43:57.219Z,3.28
2022-11-14T03:46:43.701Z,3.70
2022-11-14T03:49:29.909Z,3.80
2022-11-14T03:52:16.131Z,4.00
2022-11-14T03:55:02.331Z,3.83
2022-11-14T03:57:48.437Z,3.42
2022-11-14T04:00:36.037Z,3.67
2022-11-14T04:03:22.178Z,3.60
2022-11-14T04:06:08.422Z,4.15
2022-11-14T04:08:56.568Z,3.88
2022-11-14T04:11:42.815Z,3.72
2022-11-14T04:14:28.884Z,4.68
2022-11-14T04:17:16.511Z,4.50
2022-11-14T04:20:02.764Z,3.95
2022-11-14T04:22:48.976Z,3.78
2022-11-14T04:25:35.193Z,3.92
2022-11-14T04:28:21.364Z,4.20
2022-11-14T04:31:07.572Z,3.90
2022-11-14T04:33:55.399Z,4.25
2022-11-14T04:36:41.619Z,3.85
2022-11-14T04:39:27.697Z,3.50
2022-11-14T04:42:14.624Z,3.83
2022-11-14T04:45:01.027Z,4.30
2022-11-14T04:47:47.339Z,3.90
2022-11-14T04:50:34.855Z,3.78
2022-11-14T04:53:21.054Z,4.10
2022-11-14T04:56:08.002Z,4.90
2022-11-14T04:58:54.551Z,4.00
2022-11-14T05:01:40.745Z,3.88
2022-11-14T05:04:27.029Z,3.80
2022-11-14T05:07:15.142Z,4.30
2022-11-14T05:10:01.684Z,4.97
2022-11-14T05:12:47.899Z,4.55
2022-11-14T05:15:34.143Z,4.25
2022-11-14T05:18:20.493Z,4.10
2022-11-14T05:21:07.725Z,3.95
2022-11-14T05:23:55.493Z,4.07
2022-11-14T05:26:41.672Z,4.10
2022-11-14T05:29:28.017Z,4.47
2022-11-14T05:32:16.422Z,3.92
2022-11-14T05:35:02.810Z,6.55
2022-11-14T05:37:49.064Z,4.53
2022-11-14T05:40:38.168Z,4.80
2022-11-14T05:43:24.469Z,4.20
2022-11-14T05:46:12.514Z,4.63
2022-11-14T05:48:58.872Z,4.10
2022-11-14T05:51:45.080Z,3.90
2022-11-14T05:54:31.336Z,4.22
2022-11-14T05:57:18.890Z,4.65
2022-11-14T06:00:05.385Z,3.83
2022-11-14T06:02:53.790Z,4.03
2022-11-14T06:05:40.294Z,3.65
2022-11-14T06:08:26.781Z,4.10
2022-11-14T06:11:15.672Z,4.00
2022-11-14T06:14:08.219Z,3.92
2022-11-14T06:16:57.285Z,4.15
2022-11-14T06:19:43.428Z,3.90
2022-11-14T06:22:29.630Z,4.00
2022-11-14T06:25:15.970Z,3.95
2022-11-14T06:28:02.410Z,3.58
2022-11-14T06:30:50.034Z,4.35
2022-11-14T06:33:37.960Z,4.30
2022-11-14T06:36:24.380Z,4.03
2022-11-14T06:39:10.641Z,4.20
2022-11-14T06:41:56.746Z,4.20
2022-11-14T06:44:42.846Z,3.90
2022-11-14T06:47:30.449Z,5.43
2022-11-14T06:50:16.612Z,4.15
2022-11-14T06:53:02.936Z,3.83
2022-11-14T06:55:55.534Z,5.03
2022-11-14T06:58:43.994Z,4.80
2022-11-14T07:01:30.212Z,4.22
2022-11-14T07:04:17.916Z,5.40
2022-11-14T07:07:04.503Z,4.95
2022-11-14T07:09:50.497Z,5.88
2022-11-14T07:12:36.769Z,5.07
2022-11-14T07:15:23.018Z,4.88
2022-11-14T07:18:09.088Z,4.90
2022-11-14T07:21:00.554Z,5.72
2022-11-14T07:23:46.977Z,4.93
2022-11-14T07:26:33.207Z,5.60
2022-11-14T07:29:19.474Z,5.85
2022-11-14T07:32:06.415Z,6.93
2022-11-14T07:34:53.547Z,6.50
2022-11-14T07:37:43.143Z,6.45
2022-11-14T07:40:29.752Z,6.13
2022-11-14T07:43:16.371Z,6.82
2022-11-14T07:46:03.168Z,6.43
2022-11-14T07:48:49.318Z,5.70
2022-11-14T07:51:35.445Z,5.68
2022-11-14T07:54:22.885Z,5.22
2022-11-14T07:57:08.899Z,7.03
2022-11-14T07:59:55.015Z,30.17
2022-11-14T08:02:41.576Z,21.95
2022-11-14T08:05:27.854Z,15.18
2022-11-14T08:08:14.760Z,13.18
2022-11-14T08:11:02.806Z,7.03
2022-11-14T08:13:48.850Z,8.95
2022-11-14T08:16:35.116Z,7.15
2022-11-14T08:19:21.386Z,5.20
2022-11-14T08:22:08.724Z,5.68
2022-11-14T08:24:55.250Z,5.80
2022-11-14T08:27:42.711Z,5.75
2022-11-14T08:30:29.849Z,5.43
2022-11-14T08:33:16.290Z,5.70
2022-11-14T08:36:02.823Z,5.40
2022-11-14T08:38:51.508Z,5.30
2022-11-14T08:41:38.402Z,4.90
2022-11-14T08:44:25.815Z,5.20
2022-11-14T08:47:11.837Z,5.07
2022-11-14T08:49:58.024Z,5.30
2022-11-14T08:52:44.189Z,5.45
2022-11-14T08:55:30.437Z,4.63
2022-11-14T08:58:17.160Z,5.03
2022-11-14T09:01:06.499Z,5.78
2022-11-14T09:03:58.383Z,5.53
2022-11-14T09:06:46.782Z,5.30
2022-11-14T09:09:33.576Z,6.03
2022-11-14T09:12:20.054Z,5.53
2022-11-14T09:15:07.620Z,6.25
2022-11-14T09:17:55.836Z,5.75
2022-11-14T09:20:42.519Z,6.00
2022-11-14T09:23:29.286Z,5.35
2022-11-14T09:26:18.350Z,5.65
2022-11-14T09:29:06.386Z,6.32
2022-11-14T09:31:55.011Z,6.05
2022-11-14T09:34:45.446Z,6.03
2022-11-14T09:37:31.994Z,6.20
2022-11-14T09:40:18.310Z,6.60
2022-11-14T09:43:16.328Z,5.97
2022-11-14T09:46:03.803Z,6.37
2022-11-14T09:48:52.770Z,5.65
2022-11-14T09:51:50.378Z,5.35
2022-11-14T09:54:45.606Z,6.18
2022-11-14T09:57:32.002Z,6.25
2022-11-14T10:00:20.699Z,6.43
2022-11-14T10:06:26.269Z,6.97
2022-11-14T10:09:45.732Z,6.00
2022-11-14T10:12:41.619Z,6.38
2022-11-14T10:15:36.865Z,5.75
2022-11-14T10:18:36.755Z,7.57
2022-11-14T10:21:38.741Z,7.43
2022-11-14T10:24:48.701Z,7.22
2022-11-14T10:27:40.911Z,7.57
2022-11-14T10:30:36.020Z,7.43
2022-11-14T10:33:34.142Z,7.05
2022-11-14T10:36:34.990Z,5.90
2022-11-14T10:39:25.529Z,6.68
2022-11-14T10:42:18.237Z,6.25
2022-11-14T10:45:09.012Z,6.22
2022-11-14T10:47:59.140Z,6.53
2022-11-14T10:50:53.678Z,6.32
2022-11-14T10:53:49.491Z,6.75
2022-11-14T10:56:35.817Z,6.35
2022-11-14T10:59:23.850Z,6.25
2022-11-14T11:02:11.020Z,6.33
2022-11-14T11:05:12.703Z,6.55
2022-11-14T11:08:42.080Z,6.00
2022-11-14T11:11:33.267Z,6.00
2022-11-14T11:14:20.617Z,6.25
2022-11-14T11:17:19.716Z,6.25
2022-11-14T11:23:19.620Z,6.07
2022-11-14T11:26:09.488Z,5.45
2022-11-14T11:29:05.380Z,5.60
2022-11-14T11:31:53.493Z,6.97
2022-11-14T11:34:41.564Z,7.90
2022-11-14T11:37:31.405Z,7.35
2022-11-14T11:40:20.964Z,5.78
2022-11-14T11:43:37.809Z,3.92
2022-11-14T11:46:26.676Z,3.83
2022-11-14T11:49:17.376Z,3.15
2022-11-14T11:52:11.311Z,2.97
2022-11-14T11:55:03.858Z,2.90
2022-11-14T11:57:56.000Z,2.53
2022-11-14T12:00:42.136Z,2.53
2022-11-14T12:03:28.559Z,2.30
2022-11-14T12:06:18.590Z,2.20
2022-11-14T12:09:15.950Z,2.25
2022-11-14T12:12:06.368Z,2.20
2022-11-14T12:15:09.157Z,2.10
2022-11-14T12:18:19.119Z,2.67
2022-11-14T12:21:13.520Z,2.22
2022-11-14T12:24:24.250Z,1.90
2022-11-14T12:27:26.414Z,2.08
2022-11-14T12:30:21.644Z,1.63
2022-11-14T12:33:13.038Z,2.00
2022-11-14T12:36:02.729Z,2.10
2022-11-14T12:38:52.768Z,1.90
2022-11-14T12:41:41.459Z,1.80
2022-11-14T12:44:37.438Z,2.05
2022-11-14T12:47:25.798Z,2.10
2022-11-14T12:50:40.522Z,2.00
2022-11-14T12:53:42.097Z,1.90
2022-11-14T12:56:56.424Z,2.35
2022-11-14T12:59:54.767Z,2.22
2022-11-14T13:03:04.679Z,2.20
2022-11-14T13:05:58.164Z,1.80
2022-11-14T13:09:10.485Z,1.98
2022-11-14T13:12:15.885Z,2.00
2022-11-14T13:15:39.060Z,4.50
2022-11-14T13:18:44.810Z,2.95
2022-11-14T13:21:47.409Z,2.58
2022-11-14T13:25:06.703Z,2.53
2022-11-14T13:28:21.678Z,3.75
2022-11-14T13:31:07.456Z,11.98
2022-11-14T13:33:59.053Z,2.92
2022-11-14T13:36:54.380Z,2.72
2022-11-14T13:39:49.183Z,2.92
2022-11-14T13:42:51.574Z,2.92
2022-11-14T13:45:50.426Z,2.50
2022-11-14T13:49:02.611Z,2.97
2022-11-14T13:51:52.443Z,2.40
2022-11-14T13:54:38.837Z,2.70
2022-11-14T13:57:36.425Z,2.83
2022-11-14T14:00:22.977Z,3.00
2022-11-14T14:03:23.438Z,2.50
2022-11-14T14:06:21.181Z,2.70
2022-11-14T14:09:26.098Z,2.90
2022-11-14T14:12:38.913Z,2.70
2022-11-14T14:15:30.197Z,2.95
2022-11-14T14:18:27.626Z,2.60
2022-11-14T14:21:24.260Z,3.05
2022-11-14T14:24:21.558Z,2.83
2022-11-14T14:27:20.147Z,2.75
2022-11-14T14:30:11.786Z,2.90
2022-11-14T14:33:14.898Z,2.80
2022-11-14T14:36:02.759Z,2.88
2022-11-14T14:38:49.472Z,2.92
2022-11-14T14:41:36.008Z,2.92
2022-11-14T14:44:26.668Z,2.72
2022-11-14T14:47:18.496Z,3.10
2022-11-14T14:50:09.212Z,2.55
2022-11-14T14:53:01.445Z,4.22
2022-11-14T14:55:54.412Z,2.60
2022-11-14T14:58:40.753Z,2.35
2022-11-14T15:01:34.010Z,2.45
2022-11-14T15:04:23.385Z,2.50
2022-11-14T15:07:20.997Z,2.70
2022-11-14T15:10:19.295Z,2.53
2022-11-14T15:13:05.876Z,2.38
2022-11-14T15:15:52.617Z,2.80
2022-11-14T15:18:39.190Z,3.00
2022-11-14T15:21:30.706Z,2.55
2022-11-14T15:24:19.225Z,2.72
2022-11-14T15:27:13.259Z,2.63
2022-11-14T15:30:03.825Z,2.75
2022-11-14T15:32:51.320Z,3.30
2022-11-14T15:35:39.644Z,2.95
2022-11-14T15:38:43.657Z,2.78
2022-11-14T15:41:31.814Z,2.95
2022-11-14T15:44:31.999Z,3.20
2022-11-14T15:47:24.351Z,3.33
2022-11-14T15:50:28.320Z,3.10
2022-11-14T15:53:23.512Z,2.88
2022-11-14T15:56:12.435Z,3.53
2022-11-14T15:58:58.549Z,3.40
2022-11-14T16:01:49.759Z,3.35
2022-11-14T16:04:40.703Z,4.18
2022-11-14T16:07:31.081Z,4.22
2022-11-14T16:10:20.548Z,3.88
2022-11-14T16:13:07.512Z,3.85
2022-11-14T16:15:53.547Z,3.28
2022-11-14T16:18:41.130Z,3.72
2022-11-14T16:21:27.554Z,4.00
2022-11-14T16:24:17.134Z,3.60
2022-11-14T16:29:49.752Z,3.47
2022-11-14T16:32:35.880Z,3.60
2022-11-14T16:35:25.322Z,3.90
2022-11-14T16:38:13.979Z,3.90
2022-11-14T16:41:00.332Z,4.13
2022-11-14T16:43:46.953Z,3.58
2022-11-14T16:46:33.300Z,3.92
2022-11-14T16:49:19.976Z,4.28
2022-11-14T16:52:08.771Z,4.07
2022-11-14T16:54:55.181Z,4.63
2022-11-14T16:57:41.794Z,5.13
2022-11-14T17:00:28.612Z,4.70
2022-11-14T17:03:15.343Z,4.97
2022-11-14T17:06:01.745Z,4.95
2022-11-14T17:08:49.381Z,5.05
2022-11-14T17:11:36.009Z,4.88
2022-11-14T17:14:22.118Z,4.70
2022-11-14T17:17:08.273Z,5.10
2022-11-14T17:19:54.491Z,4.78
2022-11-14T17:22:40.729Z,6.60
2022-11-14T17:25:28.441Z,6.97
2022-11-14T17:28:14.990Z,5.13
2022-11-14T17:31:01.714Z,5.38
2022-11-14T17:33:52.279Z,5.18
2022-11-14T17:36:38.581Z,4.97
2022-11-14T17:39:25.144Z,5.07
2022-11-14T17:42:12.811Z,5.45
2022-11-14T17:45:00.910Z,5.43
2022-11-14T17:47:47.318Z,4.95
2022-11-14T17:50:37.623Z,5.95
2022-11-14T17:53:24.060Z,5.60
2022-11-14T17:56:13.916Z,6.00
2022-11-14T17:59:01.826Z,6.22
2022-11-14T18:01:48.412Z,5.75
2022-11-14T18:04:34.817Z,5.72
2022-11-14T18:07:21.480Z,5.47
2022-11-14T18:10:08.347Z,5.75
2022-11-14T18:12:54.704Z,5.90
2022-11-14T18:15:42.493Z,5.75
2022-11-14T18:18:31.448Z,6.65
2022-11-14T18:21:20.591Z,5.78
2022-11-14T18:24:07.470Z,6.03
2022-11-14T18:26:55.443Z,6.13
2022-11-14T18:29:41.727Z,15.77
2022-11-14T18:32:29.826Z,6.50
2022-11-14T18:35:16.507Z,6.20
2022-11-14T18:38:02.753Z,6.85
2022-11-14T18:40:54.313Z,9.27
2022-11-14T18:43:44.393Z,8.40
2022-11-14T18:46:36.948Z,9.30
2022-11-14T18:49:28.144Z,8.32
2022-11-14T18:52:17.371Z,9.82
2022-11-14T18:55:05.120Z,11.63
2022-11-14T18:57:51.765Z,10.75
2022-11-14T19:00:38.090Z,10.63
2022-11-14T19:03:24.744Z,8.10
2022-11-14T19:06:13.477Z,10.20
2022-11-14T19:09:01.030Z,10.10
2022-11-14T19:12:04.910Z,9.75
2022-11-14T19:14:52.887Z,8.13
2022-11-14T19:17:39.333Z,8.93
2022-11-14T19:20:25.851Z,11.68
2022-11-14T19:23:13.826Z,9.55
2022-11-14T19:26:00.790Z,9.85
2022-11-14T19:28:47.818Z,10.18
2022-11-14T19:31:34.628Z,9.25
2022-11-14T19:34:21.339Z,8.95
2022-11-14T19:37:07.603Z,8.70
2022-11-14T19:39:56.471Z,8.98
2022-11-14T19:42:43.008Z,9.25
2022-11-14T19:45:29.199Z,9.38
2022-11-14T19:48:15.728Z,8.73
2022-11-14T19:51:03.357Z,14.60
2022-11-14T19:53:50.227Z,12.27
2022-11-14T19:56:38.521Z,14.27
2022-11-14T19:59:27.838Z,10.98
2022-11-14T20:02:14.993Z,9.65
2022-11-14T20:05:01.118Z,8.60
2022-11-14T20:07:47.940Z,8.18
2022-11-14T20:10:47.503Z,9.13
2022-11-14T20:13:37.486Z,8.77
2022-11-14T20:16:25.498Z,7.60
2022-11-14T20:19:13.568Z,9.98
2022-11-14T20:21:59.906Z,8.50
2022-11-14T20:24:46.520Z,10.60
2022-11-14T20:27:33.037Z,9.63
2022-11-14T20:30:20.983Z,8.93
2022-11-14T20:33:07.695Z,8.45
2022-11-14T20:35:54.041Z,8.65
2022-11-14T20:38:40.800Z,9.73
2022-11-14T20:41:27.085Z,10.50
2022-11-14T20:44:13.642Z,10.52
2022-11-14T20:47:01.613Z,9.80
2022-11-14T20:49:48.086Z,13.98
2022-11-14T20:52:35.724Z,16.60
2022-11-14T20:55:22.385Z,16.38
2022-11-14T20:58:09.036Z,15.82
2022-11-14T21:00:56.122Z,14.68
2022-11-14T21:03:44.364Z,15.05
2022-11-14T21:06:30.821Z,13.95
2022-11-14T21:09:17.391Z,11.85
2022-11-14T21:12:03.791Z,13.20
2022-11-14T21:14:50.027Z,12.48
2022-11-14T21:17:36.487Z,12.20
2022-11-14T21:20:24.212Z,7.18
2022-11-14T21:23:10.243Z,6.68
2022-11-14T21:26:04.101Z,6.75
2022-11-14T21:28:53.456Z,7.53
2022-11-14T21:31:41.989Z,7.40
2022-11-14T21:34:28.441Z,6.63
2022-11-14T21:37:16.081Z,6.57
2022-11-14T21:40:02.708Z,6.10
2022-11-14T21:42:48.955Z,5.95
2022-11-14T21:45:35.311Z,5.90
2022-11-14T21:48:21.902Z,5.50
2022-11-14T21:51:10.016Z,5.82
2022-11-14T21:53:59.312Z,5.32
2022-11-14T21:56:45.836Z,5.35
2022-11-14T21:59:32.151Z,5.25
2022-11-14T22:02:36.243Z,5.45
2022-11-14T22:05:22.748Z,5.13
2022-11-14T22:08:08.915Z,5.47
2022-11-14T22:11:01.373Z,6.43
2022-11-14T22:13:48.037Z,5.43
2022-11-14T22:16:34.840Z,5.13
2022-11-14T22:19:21.593Z,5.45
2022-11-14T22:22:08.895Z,5.10
2022-11-14T22:24:55.367Z,5.35
2022-11-14T22:27:43.310Z,5.18
2022-11-14T22:30:29.920Z,5.53
2022-11-14T22:33:16.338Z,5.20
2022-11-14T22:36:04.591Z,5.35
2022-11-14T22:38:53.030Z,5.18
2022-11-14T22:41:39.624Z,5.70
2022-11-14T22:44:27.382Z,5.10
2022-11-14T22:47:13.763Z,4.80
2022-11-14T22:50:00.385Z,5.20
2022-11-14T22:52:46.616Z,5.22
2022-11-14T22:55:33.151Z,6.28
2022-11-14T22:58:19.677Z,6.38
2022-11-14T23:01:13.164Z,6.20
2022-11-14T23:04:01.095Z,3.95
2022-11-14T23:06:47.475Z,5.80
2022-11-14T23:09:34.106Z,5.20
2022-11-14T23:12:20.559Z,5.07
2022-11-14T23:15:07.756Z,5.53
2022-11-14T23:17:55.652Z,6.03
2022-11-14T23:20:41.968Z,5.70
2022-11-14T23:23:28.638Z,5.43
2022-11-14T23:26:17.456Z,5.90
2022-11-14T23:29:04.604Z,5.72
2022-11-14T23:31:50.772Z,5.55
2022-11-14T23:34:38.504Z,4.93
2022-11-14T23:37:25.383Z,4.95
2022-11-14T23:40:12.611Z,5.57
2022-11-14T23:42:59.026Z,5.45
2022-11-14T23:45:45.893Z,5.30
2022-11-14T23:48:32.115Z,5.63
2022-11-14T23:51:19.897Z,7.32
2022-11-14T23:54:06.242Z,6.32
2022-11-14T23:56:52.891Z,6.20
2022-11-14T23:59:39.157Z,5.85
